createdAt,value
2023-03-29T00:03:55.323Z,6.70
2023-03-29T00:09:16.268Z,6.57
2023-03-29T00:14:37.079Z,8.00
2023-03-29T00:19:57.230Z,8.75
2023-03-29T00:25:18.395Z,7.93
2023-03-29T00:30:38.877Z,7.50
2023-03-29T00:36:00.007Z,9.32
2023-03-29T00:41:21.736Z,7.32
2023-03-29T00:46:42.805Z,8.48
2023-03-29T00:52:03.545Z,9.05
2023-03-29T00:57:27.275Z,7.85
2023-03-29T01:02:54.465Z,10.07
2023-03-29T01:08:25.766Z,9.07
2023-03-29T01:13:58.367Z,10.90
2023-03-29T01:19:22.050Z,9.65
2023-03-29T01:24:57.548Z,11.50
2023-03-29T01:35:59.808Z,9.05
2023-03-29T01:41:20.935Z,8.73
2023-03-29T01:46:47.856Z,8.75
2023-03-29T01:52:16.968Z,8.60
2023-03-29T01:57:43.804Z,6.40
2023-03-29T02:08:29.691Z,8.60
2023-03-29T02:13:51.479Z,10.07
2023-03-29T02:19:13.397Z,8.45
2023-03-29T02:24:37.134Z,8.02
2023-03-29T02:29:58.881Z,8.70
2023-03-29T02:35:39.122Z,8.43
2023-03-29T02:41:01.364Z,9.65
2023-03-29T02:46:22.282Z,8.65
2023-03-29T02:51:44.654Z,9.48
2023-03-29T02:57:08.550Z,10.30
2023-03-29T03:02:29.738Z,10.17
2023-03-29T03:07:51.462Z,8.25
2023-03-29T03:13:12.612Z,8.48
2023-03-29T03:18:34.407Z,8.90
2023-03-29T03:23:55.699Z,8.68
2023-03-29T03:29:16.546Z,11.15
2023-03-29T03:34:56.509Z,7.45
2023-03-29T03:40:20.737Z,7.97
2023-03-29T03:45:42.940Z,8.75
2023-03-29T03:51:08.022Z,8.40
2023-03-29T03:56:29.924Z,8.90
2023-03-29T04:02:13.498Z,8.90
2023-03-29T04:07:34.421Z,8.90
2023-03-29T04:13:15.507Z,7.45
2023-03-29T04:18:56.325Z,6.65
2023-03-29T04:24:18.540Z,7.55
2023-03-29T04:29:55.492Z,8.38
2023-03-29T04:35:36.164Z,7.28
2023-03-29T04:40:58.166Z,7.57
2023-03-29T04:46:40.182Z,6.70
2023-03-29T04:52:27.158Z,5.32
2023-03-29T04:57:48.750Z,7.10
2023-03-29T05:03:14.621Z,7.28
2023-03-29T05:08:50.191Z,5.05
2023-03-29T05:14:18.372Z,5.90
2023-03-29T05:19:39.043Z,6.05
2023-03-29T05:25:01.147Z,7.43
2023-03-29T05:30:22.460Z,3.53
2023-03-29T05:35:49.443Z,3.83
2023-03-29T05:41:10.919Z,5.18
2023-03-29T05:46:34.900Z,3.28
2023-03-29T05:51:57.343Z,5.28
2023-03-29T05:57:19.131Z,7.68
2023-03-29T06:02:40.346Z,7.05
2023-03-29T06:08:01.705Z,6.53
2023-03-29T06:13:42.088Z,6.38
2023-03-29T06:19:02.976Z,7.53
2023-03-29T06:24:25.082Z,6.93
2023-03-29T06:29:54.340Z,5.68
2023-03-29T06:35:15.314Z,6.60
2023-03-29T06:41:58.553Z,6.53
2023-03-29T06:47:45.016Z,5.47
2023-03-29T06:53:05.733Z,6.05
2023-03-29T06:58:28.781Z,7.00
2023-03-29T07:03:54.232Z,6.28
2023-03-29T07:09:21.448Z,7.55
2023-03-29T07:15:09.408Z,6.43
2023-03-29T07:21:06.084Z,8.05
2023-03-29T07:26:28.541Z,8.55
2023-03-29T07:31:52.174Z,7.15
2023-03-29T07:37:32.862Z,6.40
2023-03-29T07:42:56.450Z,7.22
2023-03-29T07:53:46.852Z,6.95
2023-03-29T07:59:27.255Z,8.15
2023-03-29T08:05:02.951Z,9.07
2023-03-29T08:10:44.972Z,8.55
2023-03-29T08:16:16.859Z,9.70
2023-03-29T08:21:45.066Z,9.48
2023-03-29T08:27:06.497Z,9.50
2023-03-29T08:32:27.729Z,10.63
2023-03-29T08:37:48.967Z,11.40
2023-03-29T08:43:31.360Z,9.38
2023-03-29T08:49:12.386Z,10.82
2023-03-29T08:54:49.731Z,13.80
2023-03-29T09:00:38.770Z,13.27
2023-03-29T09:06:04.536Z,12.23
2023-03-29T09:11:39.296Z,13.15
2023-03-29T09:17:20.044Z,14.90
2023-03-29T09:22:49.395Z,15.15
2023-03-29T09:28:21.012Z,13.07
2023-03-29T09:33:56.261Z,13.32
2023-03-29T09:39:23.160Z,17.42
2023-03-29T09:45:08.477Z,15.45
2023-03-29T09:50:38.473Z,16.55
2023-03-29T09:56:02.678Z,16.17
2023-03-29T10:01:39.467Z,16.77
2023-03-29T10:07:02.377Z,17.63
2023-03-29T10:12:23.404Z,16.38
2023-03-29T10:17:46.370Z,16.73
2023-03-29T10:23:09.026Z,18.05
2023-03-29T10:28:31.037Z,17.00
2023-03-29T10:33:54.591Z,16.67
2023-03-29T10:39:16.395Z,17.27
2023-03-29T10:44:37.426Z,20.00
2023-03-29T10:50:01.491Z,16.65
2023-03-29T10:55:29.190Z,18.33
2023-03-29T11:00:56.854Z,16.70
2023-03-29T11:06:21.940Z,16.95
2023-03-29T11:12:12.300Z,15.25
2023-03-29T11:18:05.578Z,16.25
2023-03-29T11:24:01.325Z,18.35
2023-03-29T11:29:41.140Z,18.40
2023-03-29T11:35:27.538Z,17.70
2023-03-29T11:40:55.010Z,17.52
2023-03-29T11:46:21.861Z,18.42
2023-03-29T11:51:50.800Z,16.75
2023-03-29T11:57:15.419Z,18.38
2023-03-29T12:08:21.057Z,18.42
2023-03-29T12:13:52.414Z,19.50
2023-03-29T12:19:27.093Z,19.77
2023-03-29T12:24:52.342Z,18.25
2023-03-29T12:30:41.995Z,19.90
2023-03-29T12:36:30.346Z,19.75
2023-03-29T12:42:19.806Z,19.13
2023-03-29T12:48:00.238Z,18.50
2023-03-29T12:53:33.862Z,18.05
2023-03-29T12:59:09.316Z,21.92
2023-03-29T13:04:48.358Z,18.58
2023-03-29T13:10:10.994Z,19.33
2023-03-29T13:15:34.413Z,18.83
2023-03-29T13:21:00.940Z,17.65
2023-03-29T13:26:36.734Z,21.17
2023-03-29T13:32:06.521Z,18.65
2023-03-29T13:37:33.446Z,19.08
2023-03-29T13:43:20.369Z,19.75
2023-03-29T13:48:41.316Z,20.13
2023-03-29T13:54:28.377Z,20.83
2023-03-29T14:00:11.872Z,22.08
2023-03-29T14:05:37.296Z,20.63
2023-03-29T14:11:03.151Z,19.58
2023-03-29T14:16:31.478Z,21.38
2023-03-29T14:21:53.215Z,19.98
2023-03-29T14:27:14.282Z,18.50
2023-03-29T14:32:37.085Z,20.02
2023-03-29T14:37:58.495Z,20.55
2023-03-29T14:43:24.302Z,19.15
2023-03-29T14:48:45.380Z,18.95
2023-03-29T14:54:06.551Z,17.35
2023-03-29T14:59:42.838Z,18.25
2023-03-29T15:05:07.508Z,17.90
2023-03-29T15:10:31.682Z,21.40
2023-03-29T15:15:55.993Z,18.70
2023-03-29T15:21:20.521Z,19.90
2023-03-29T15:26:41.900Z,19.38
2023-03-29T15:32:03.705Z,17.83
2023-03-29T15:37:24.472Z,16.77
2023-03-29T15:42:45.500Z,20.15
2023-03-29T15:48:16.902Z,19.45
2023-03-29T15:53:37.462Z,19.23
2023-03-29T15:58:57.947Z,16.75
2023-03-29T16:04:20.746Z,16.08
2023-03-29T16:09:42.073Z,18.00
2023-03-29T16:15:08.289Z,17.48
2023-03-29T16:20:28.841Z,18.17
2023-03-29T16:25:49.451Z,18.95
2023-03-29T16:31:13.692Z,17.83
2023-03-29T16:41:55.615Z,19.35
2023-03-29T16:47:16.285Z,21.80
2023-03-29T16:52:37.908Z,22.42
2023-03-29T16:57:58.356Z,20.45
2023-03-29T17:03:18.675Z,20.35
2023-03-29T17:08:39.573Z,21.92
2023-03-29T17:14:00.360Z,20.35
2023-03-29T17:19:21.335Z,20.10
2023-03-29T17:24:41.846Z,20.45
2023-03-29T17:30:04.662Z,18.48
2023-03-29T17:35:26.417Z,21.05
2023-03-29T17:40:54.265Z,21.35
2023-03-29T17:46:16.521Z,20.85
2023-03-29T17:51:36.936Z,20.55
2023-03-29T17:56:57.786Z,19.58
2023-03-29T18:02:21.302Z,20.23
2023-03-29T18:07:41.748Z,20.67
2023-03-29T18:13:02.292Z,18.77
2023-03-29T18:18:23.940Z,24.77
2023-03-29T18:23:47.216Z,23.90
2023-03-29T18:29:09.860Z,23.20
2023-03-29T18:34:31.260Z,24.52
2023-03-29T18:39:51.938Z,26.05
2023-03-29T18:45:12.646Z,23.15
2023-03-29T18:50:34.740Z,22.60
2023-03-29T18:55:55.830Z,24.05
2023-03-29T19:01:16.375Z,22.50
2023-03-29T19:06:36.915Z,24.23
2023-03-29T19:11:57.520Z,23.60
2023-03-29T19:17:19.540Z,24.05
2023-03-29T19:22:40.237Z,22.52
2023-03-29T19:28:03.406Z,24.42
2023-03-29T19:33:24.344Z,25.25
2023-03-29T19:38:45.725Z,26.38
2023-03-29T19:44:06.956Z,24.88
2023-03-29T19:49:27.400Z,24.45
2023-03-29T19:54:48.338Z,25.17
2023-03-29T20:00:14.176Z,25.42
2023-03-29T20:05:35.667Z,26.05
2023-03-29T20:10:58.492Z,24.30
2023-03-29T20:16:19.537Z,24.88
2023-03-29T20:21:40.201Z,23.52
2023-03-29T20:27:00.849Z,23.80
2023-03-29T20:32:21.258Z,23.60
2023-03-29T20:37:42.077Z,25.70
2023-03-29T20:43:02.618Z,24.63
2023-03-29T20:48:24.260Z,24.25
2023-03-29T20:53:46.592Z,28.55
2023-03-29T20:59:10.586Z,26.27
2023-03-29T21:04:31.602Z,25.23
2023-03-29T21:09:52.320Z,26.55
2023-03-29T21:15:13.548Z,27.52
2023-03-29T21:20:37.545Z,26.15
2023-03-29T21:25:57.894Z,26.10
2023-03-29T21:31:18.620Z,26.95
2023-03-29T21:36:39.772Z,25.73
2023-03-29T21:42:00.303Z,28.73
2023-03-29T21:47:20.883Z,27.58
2023-03-29T21:52:41.598Z,24.75
2023-03-29T21:58:04.418Z,27.45
2023-03-29T22:03:24.873Z,29.52
2023-03-29T22:08:46.694Z,28.38
2023-03-29T22:14:08.261Z,27.17
2023-03-29T22:19:28.528Z,27.63
2023-03-29T22:24:48.825Z,26.30
2023-03-29T22:30:10.203Z,28.42
2023-03-29T22:35:30.664Z,28.48
2023-03-29T22:40:50.871Z,27.92
2023-03-29T22:46:13.335Z,27.38
2023-03-29T22:51:34.277Z,28.55
2023-03-29T22:56:56.451Z,27.50
2023-03-29T23:02:16.920Z,29.75
2023-03-29T23:07:37.199Z,29.27
2023-03-29T23:13:08.605Z,27.80
2023-03-29T23:18:31.467Z,29.30
2023-03-29T23:23:52.080Z,28.98
2023-03-29T23:29:13.112Z,30.75
2023-03-29T23:34:33.918Z,29.23
2023-03-29T23:39:54.439Z,29.25
2023-03-29T23:45:20.942Z,27.85
2023-03-29T23:50:46.336Z,30.52
2023-03-29T23:56:07.559Z,29.25
